Latest Weather Observations for Gooseberry Hill

IDW60901

Issued at 1:21 pm WST Tuesday 19 January 2021 (issued every 10 minutes, with the page automatically refreshed every 10 minutes)

About weather observations | Map of Perth area stations | Latest observations for Perth area | Other Formats
Station Details ID: 009204 Name: GOOSEBERRY HILL Lat: -31.94 Lon: 116.05 Height: 220.0 m
Data from the previous 72 hours. | See also: Recent months at Gooseberry Hill
Date/Time
WST
Temp
°C
App
Temp
°C
Dew
Point
°C
Rel
Hum
%
Delta-T
°C
Wind Press
QNH
hPa
Press
MSL
hPa
Rain since
9am
mm
Dir  Spd
km/h
Gust
km/h
Spd
kts
Gust
kts
19/01:00pm 36.2 34.3 11.8 23 14.7 WSW 13 26 7 14 - - -
19/12:30pm 36.7 34.1 9.3 19 15.9 NNE 13 20 7 11 - - -
19/12:00pm 36.1 32.6 8.8 19 15.7 NNW 17 35 9 19 - - -
19/11:30am 36.1 32.8 9.6 20 15.4 N 17 33 9 18 - - -
19/11:00am 35.9 33.5 10.2 21 15.1 NNW 13 22 7 12 - - -
19/10:30am 34.0 31.0 9.3 22 14.2 NNW 15 24 8 13 - - -
19/10:00am 34.4 30.6 8.9 21 14.6 N 19 37 10 20 - - -
19/09:30am 33.3 30.0 8.0 21 14.2 NNE 15 22 8 12 - - -
19/09:00am 33.7 29.9 7.6 20 14.6 NE 17 22 9 12 - - -
19/08:30am 31.4 26.8 6.5 21 13.5 ENE 20 32 11 17 - - -
19/08:00am 30.4 25.9 7.0 23 12.7 ENE 20 35 11 19 - - -
19/07:30am 28.2 22.7 9.0 30 10.7 ENE 28 39 15 21 - - -
19/07:00am 26.8 20.0 9.2 33 9.8 ENE 35 46 19 25 - - -
19/06:30am 26.0 19.7 9.8 36 9.0 E 33 44 18 24 - - -
19/06:00am 25.2 19.6 10.3 39 8.3 E 30 41 16 22 - - -
19/05:30am 25.4 20.1 11.2 41 8.1 E 30 43 16 23 - - -
19/05:00am 25.1 20.3 11.6 42 7.7 E 28 39 15 21 - - -
19/04:30am 25.0 20.3 11.9 44 7.5 E 28 39 15 21 - - -
19/04:00am 25.2 20.5 12.1 44 7.6 E 28 37 15 20 - - -
19/03:30am 25.3 20.5 11.8 43 7.8 E 28 37 15 20 - - -
19/03:00am 25.4 20.5 11.2 41 8.1 E 28 37 15 20 - - -
19/02:30am 25.6 20.2 11.0 40 8.3 E 30 39 16 21 - - -
19/02:00am 24.4 20.2 11.0 43 7.6 E 24 32 13 17 - - -
19/01:30am 25.2 21.1 11.4 42 7.9 E 24 35 13 19 - - -
19/01:00am 25.4 21.4 10.4 39 8.4 E 22 35 12 19 - - -
19/12:30am 25.4 20.5 10.1 38 8.6 E 26 37 14 20 - - -
19/12:00am 25.3 20.9 10.4 39 8.4 E 24 32 13 17 - - -
 
Date/Time
WST
Temp
°C
App
Temp
°C
Dew
Point
°C
Rel
Hum
%
Delta-T
°C
Wind Press
QNH
hPa
Press
MSL
hPa
Rain since
9am
mm
Dir  Spd
km/h
Gust
km/h
Spd
kts
Gust
kts
18/11:30pm 25.5 21.1 10.5 39 8.4 E 24 35 13 19 - - -
18/11:00pm 25.6 20.9 10.6 39 8.5 ENE 26 39 14 21 - - -
18/10:30pm 25.2 20.9 10.6 40 8.2 E 24 35 13 19 - - -
18/10:00pm 25.3 21.4 10.7 40 8.2 E 22 32 12 17 - - -
18/09:30pm 25.3 20.3 11.1 41 8.1 E 28 39 15 21 - - -
18/09:00pm 25.1 20.9 12.3 45 7.4 E 26 37 14 20 - - -
18/08:30pm 25.3 21.3 12.9 46 7.3 ENE 26 35 14 19 - - -
18/08:00pm 25.4 22.9 13.6 48 7.0 ENE 19 30 10 16 - - -
18/07:30pm 25.9 23.6 13.1 45 7.5 NE 17 24 9 13 - - -
18/07:00pm 26.1 21.8 12.2 42 8.1 NNE 26 39 14 21 - - -
18/06:30pm 27.1 24.0 11.6 38 9.0 NE 19 28 10 15 - - -
18/06:00pm 27.7 24.7 12.5 39 8.9 N 20 32 11 17 - - -
18/05:30pm 29.4 26.6 11.5 33 10.4 NE 17 22 9 12 - - -
18/05:00pm 29.9 26.7 11.4 32 10.8 NNE 19 24 10 13 - - -
18/04:30pm 30.6 26.2 10.5 29 11.6 NNE 24 35 13 19 - - -
18/04:00pm 31.7 27.1 11.0 28 12.1 NE 26 37 14 20 - - -
18/03:30pm 32.6 29.0 11.7 28 12.4 ENE 22 35 12 19 - - -
18/03:00pm 32.0 27.6 11.7 28 12.0 ENE 26 37 14 20 - - -
18/02:30pm 31.6 27.1 11.4 29 11.9 ENE 26 41 14 22 - - -
18/02:00pm 30.4 24.8 11.4 31 11.1 ENE 32 46 17 25 - - -
18/01:46pm 29.7 24.3 10.8 31 10.9 ENE 30 50 16 27 - - -
18/01:30pm 29.6 23.7 11.2 32 10.7 NE 33 46 18 25 - - -
18/01:00pm 29.1 22.7 8.7 28 11.3 ENE 32 46 17 25 - - -
18/12:54pm 30.0 24.5 9.0 27 11.8 ENE 28 46 15 25 - - -
18/12:30pm 28.9 23.6 8.6 28 11.3 ENE 26 39 14 21 - - -
18/12:00pm 27.7 22.6 7.5 28 10.9 NE 24 37 13 20 - - -
18/11:30am 27.4 23.1 5.1 24 11.6 NE 17 26 9 14 - - -
18/11:00am 27.1 22.0 4.2 23 11.7 NE 20 33 11 18 - - -
18/10:30am 27.5 21.7 4.5 23 11.8 NE 24 35 13 19 - - -
18/10:00am 27.3 20.4 4.4 23 11.7 ENE 30 48 16 26 - - -
18/09:59am 27.4 20.5 4.5 23 11.7 ENE 30 48 16 26 - - -
18/09:30am 26.7 19.1 3.9 23 11.5 ENE 33 44 18 24 - - -
18/09:04am 26.5 18.0 3.1 22 11.6 ENE 37 56 20 30 - - -
18/09:00am 26.5 17.6 3.1 22 11.6 ENE 39 56 21 30 - - -
18/08:48am 26.6 18.9 3.2 22 11.7 ENE 33 59 18 32 - - -
18/08:30am 25.9 18.2 3.2 23 11.3 ENE 33 46 18 25 - - -
18/08:00am 25.0 17.3 3.6 25 10.6 ENE 33 46 18 25 - - -
18/07:30am 23.2 14.0 3.7 28 9.6 E 41 52 22 28 - - -
18/07:00am 22.3 13.6 3.9 30 9.0 E 39 52 21 28 - - -
18/06:39am 21.9 12.9 4.5 32 8.6 E 41 59 22 32 - - -
18/06:30am 21.8 12.4 4.4 32 8.6 E 43 59 23 32 - - -
18/06:00am 21.9 12.8 4.0 31 8.8 E 41 54 22 29 - - -
18/05:30am 22.0 14.1 4.1 31 8.8 E 35 50 19 27 - - -
18/05:00am 22.3 12.7 3.4 29 9.2 E 43 59 23 32 - - -
18/04:30am 22.5 13.2 3.1 28 9.4 E 41 57 22 31 - - -
18/04:08am 22.7 12.9 2.2 26 9.8 E 43 61 23 33 - - -
18/04:00am 22.9 12.6 2.4 26 9.8 E 46 61 25 33 - - -
18/03:41am 22.8 12.7 1.8 25 9.9 E 44 63 24 34 - - -
18/03:30am 22.9 12.4 1.3 24 10.1 E 46 65 25 35 - - -
18/03:05am 23.0 13.3 0.2 22 10.5 E 41 59 22 32 - - -
18/03:00am 23.0 12.9 0.2 22 10.5 E 43 59 23 32 - - -
18/02:49am 23.2 13.4 -0.3 21 10.7 E 41 61 22 33 - - -
18/02:30am 23.3 13.4 -0.9 20 10.9 E 41 57 22 31 - - -
18/02:20am 23.4 13.1 -0.8 20 10.9 E 43 61 23 33 - - -
18/02:00am 23.6 13.4 -0.6 20 11.0 E 43 56 23 30 - - -
18/01:30am 24.8 15.8 0.3 20 11.4 E 37 50 20 27 - - -
18/01:12am 25.6 16.6 0.3 19 11.9 E 37 57 20 31 - - -
18/01:00am 25.8 16.5 0.5 19 11.9 E 39 52 21 28 - - -
18/12:30am 25.9 17.0 0.5 19 12.0 E 37 52 20 28 - - -
18/12:00am 26.7 18.1 0.4 18 12.5 E 35 50 19 27 - - -
 
Date/Time
WST
Temp
°C
App
Temp
°C
Dew
Point
°C
Rel
Hum
%
Delta-T
°C
Wind Press
QNH
hPa
Press
MSL
hPa
Rain since
9am
mm
Dir  Spd
km/h
Gust
km/h
Spd
kts
Gust
kts
17/11:30pm 26.7 18.8 1.2 19 12.3 E 32 44 17 24 - - -
17/11:00pm 26.9 18.5 1.3 19 12.4 E 35 44 19 24 - - -
17/10:30pm 27.2 19.8 1.6 19 12.5 E 30 39 16 21 - - -
17/10:00pm 27.4 20.0 1.8 19 12.5 E 30 39 16 21 - - -
17/09:30pm 27.7 22.1 1.2 18 12.8 E 20 30 11 16 - - -
17/09:00pm 28.3 22.8 1.7 18 13.1 E 20 30 11 16 - - -
17/08:30pm 28.4 22.9 1.8 18 13.1 E 20 30 11 16 - - -
17/08:00pm 29.2 24.3 1.7 17 13.6 E 17 24 9 13 - - -
17/07:30pm 30.0 24.4 1.5 16 14.1 ENE 20 33 11 18 - - -
17/07:00pm 30.6 25.1 1.9 16 14.4 ENE 20 32 11 17 - - -
17/06:30pm 31.2 25.3 1.5 15 14.8 ENE 22 35 12 19 - - -
17/06:00pm 31.8 25.2 2.0 15 15.0 ENE 26 39 14 21 - - -
17/05:30pm 32.1 25.9 2.2 15 15.2 ENE 24 37 13 20 - - -
17/05:00pm 32.6 26.6 3.5 16 15.1 ENE 24 37 13 20 - - -
17/04:30pm 33.3 27.7 3.2 15 15.6 ENE 22 33 12 18 - - -
17/04:00pm 33.5 28.0 4.2 16 15.5 ENE 22 39 12 21 - - -
17/03:30pm 33.4 27.6 4.2 16 15.4 ENE 24 39 13 21 - - -
17/03:00pm 34.3 29.5 5.8 17 15.5 ENE 20 39 11 21 - - -
17/02:30pm 33.2 27.1 4.9 17 15.1 NE 26 39 14 21 - - -
17/02:00pm 33.3 27.0 5.8 18 14.9 ENE 28 41 15 22 - - -
17/01:30pm 33.1 27.2 5.6 18 14.8 E 26 46 14 25 - - -
17/01:02pm 32.5 26.2 5.9 19 14.4 E 28 46 15 25 - - -
17/01:00pm 32.3 26.4 5.7 19 14.3 E 26 43 14 23 - - -
17/12:30pm 32.9 27.1 6.2 19 14.5 E 26 43 14 23 - - -
17/12:00pm 31.3 24.2 6.4 21 13.5 ENE 33 50 18 27 - - -
17/11:30am 29.5 20.9 4.9 21 12.9 E 39 56 21 30 - - -
17/11:08am 29.7 21.7 5.7 22 12.7 ENE 37 59 20 32 - - -
17/11:00am 29.3 20.9 5.4 22 12.6 ENE 39 56 21 30 - - -
17/10:30am 29.0 21.2 5.1 22 12.5 ENE 35 57 19 31 - - -
17/10:00am 28.2 20.2 5.7 24 11.8 ENE 37 57 20 31 - - -
17/09:30am 26.6 17.2 5.5 26 11.0 ENE 44 67 24 36 - - -
17/09:02am 25.6 16.2 5.2 27 10.5 ENE 44 65 24 35 - - -
17/09:00am 25.6 16.2 5.2 27 10.5 E 44 61 24 33 - - -
17/08:38am 24.2 14.1 5.5 30 9.6 E 48 69 26 37 - - -
17/08:30am 23.6 13.6 6.0 32 9.1 E 48 63 26 34 - - -
17/08:00am 21.8 11.4 6.1 36 8.0 E 50 72 27 39 - - -
17/07:30am 19.8 9.6 6.9 43 6.6 E 50 69 27 37 - - -
17/07:03am 18.5 8.7 7.0 47 5.8 E 48 69 26 37 - - -
17/07:00am 18.4 8.6 7.2 48 5.7 E 48 67 26 36 - - -
17/06:30am 17.6 6.7 7.1 50 5.3 E 54 74 29 40 - - -
17/06:00am 17.0 7.3 7.4 53 4.9 E 48 70 26 38 - - -
17/05:32am 16.7 7.0 7.6 55 4.6 E 48 69 26 37 - - -
17/05:30am 16.7 6.6 7.6 55 4.6 E 50 69 27 37 - - -
17/05:00am 16.8 7.1 7.7 55 4.6 E 48 70 26 38 - - -
17/04:30am 16.9 7.3 7.8 55 4.6 E 48 72 26 39 - - -
17/04:00am 17.3 7.6 7.6 53 4.9 E 48 74 26 40 - - -
17/03:30am 17.6 8.0 7.9 53 5.0 E 48 70 26 38 - - -
17/03:00am 17.9 8.3 7.9 52 5.1 E 48 72 26 39 - - -
17/02:30am 18.2 9.0 7.9 51 5.3 E 46 69 25 37 - - -
17/02:00am 18.6 9.4 8.0 50 5.5 E 46 78 25 42 - - -
17/01:30am 19.3 9.6 7.7 47 6.0 E 48 83 26 45 - - -
17/01:24am 19.4 9.8 7.8 47 6.0 E 48 83 26 45 - - -
17/01:02am 19.9 11.6 7.9 46 6.3 E 41 59 22 32 - - -
17/01:00am 19.9 11.2 7.6 45 6.4 E 43 57 23 31 - - -
17/12:30am 20.8 12.0 7.4 42 7.0 E 43 63 23 34 - - -
17/12:00am 21.6 13.0 6.7 38 7.7 E 41 63 22 34 - - -
 
Date/Time
WST
Temp
°C
App
Temp
°C
Dew
Point
°C
Rel
Hum
%
Delta-T
°C
Wind Press
QNH
hPa
Press
MSL
hPa
Rain since
9am
mm
Dir  Spd
km/h
Gust
km/h
Spd
kts
Gust
kts
16/11:30pm 22.6 14.7 6.0 34 8.5 E 37 65 20 35 - - -
16/11:04pm 23.6 14.6 4.5 29 9.6 E 41 59 22 32 - - -
16/11:00pm 23.9 15.2 4.3 28 9.8 E 39 57 21 31 - - -
16/10:30pm 25.5 16.1 0.2 19 11.9 E 39 63 21 34 - - -
16/10:00pm 25.8 17.2 0.5 19 11.9 E 35 56 19 30 - - -
16/09:58pm 25.7 17.1 0.4 19 11.9 E 35 56 19 30 - - -
16/09:30pm 26.1 18.5 0.7 19 12.1 E 30 44 16 24 - - -
16/09:00pm 26.8 19.0 2.0 20 12.1 E 32 50 17 27 - - -
16/08:30pm 27.3 19.2 3.1 21 12.1 E 35 56 19 30 - - -
16/08:05pm 27.9 20.2 3.6 21 12.3 E 33 54 18 29 - - -
16/08:00pm 27.8 19.7 3.5 21 12.3 E 35 54 19 29 - - -
16/07:46pm 27.9 20.4 4.2 22 12.1 E 33 52 18 28 - - -
16/07:30pm 28.3 21.3 3.9 21 12.5 E 30 46 16 25 - - -
16/07:06pm 29.0 21.1 4.5 21 12.7 E 35 54 19 29 - - -
16/07:00pm 29.3 21.1 4.7 21 12.8 E 37 56 20 30 - - -
16/06:30pm 29.5 22.3 4.9 21 12.9 E 32 50 17 27 - - -
16/06:00pm 29.9 23.1 5.2 21 13.0 E 30 50 16 27 - - -
16/05:33pm 30.4 24.2 6.3 22 13.0 ENE 28 46 15 25 - - -
16/05:30pm 30.5 24.7 6.4 22 13.0 ENE 26 44 14 24 - - -
16/05:03pm 30.8 24.6 6.0 21 13.3 E 28 48 15 26 - - -
16/05:00pm 30.8 24.9 6.0 21 13.3 E 26 44 14 24 - - -
16/04:34pm 30.9 24.1 6.7 22 13.1 E 32 52 17 28 - - -
16/04:30pm 31.0 24.0 6.8 22 13.2 E 33 48 18 26 - - -
16/04:02pm 31.3 25.1 7.7 23 13.1 ENE 30 50 16 27 - - -
16/04:00pm 31.3 25.1 7.7 23 13.1 ENE 30 46 16 25 - - -
16/03:30pm 31.6 25.2 8.6 24 12.9 ENE 32 52 17 28 - - -
16/03:00pm 31.0 23.9 8.1 24 12.7 ENE 35 54 19 29 - - -
16/02:30pm 31.7 26.2 9.3 25 12.7 ENE 28 48 15 26 - - -
16/02:13pm 30.9 24.7 9.2 26 12.3 E 32 52 17 28 - - -
16/02:00pm 30.2 22.2 9.1 27 11.9 ENE 41 56 22 30 - - -
16/01:30pm 30.5 24.9 8.8 26 12.2 E 28 56 15 30 - - -

Latest Capital City Observations: Canberra | Sydney | Melbourne | Brisbane | Adelaide | Perth | Hobart | Darwin

Other formats

Comma delimited format used in spreadsheet applications
http://www.bom.gov.au/fwo/IDW60901/IDW60901.94615.axf

JavaScript Object Notation format (JSON) in row-major order
http://www.bom.gov.au/fwo/IDW60901/IDW60901.94615.json

Data quality

Most of these data are generated automatically and are frequently updated. Quality checks on data are not normally performed. It is possible for incorrect values to appear. Refer to information at About Latest Weather Observations and please check the disclaimer before using these data.